createdAt,value
2023-04-17T00:01:22.815Z,95774.19
2023-04-17T00:03:54.716Z,95772.78
2023-04-17T00:06:27.407Z,95775.75
2023-04-17T00:08:59.392Z,95773.50
2023-04-17T00:11:30.885Z,95772.94
2023-04-17T00:14:02.421Z,95771.28
2023-04-17T00:16:33.941Z,95766.25
2023-04-17T00:19:05.630Z,95765.75
2023-04-17T00:21:37.160Z,95760.63
2023-04-17T00:24:08.700Z,95764.06
2023-04-17T00:26:40.604Z,95753.28
2023-04-17T00:29:12.497Z,95764.31
2023-04-17T00:31:44.440Z,95763.00
2023-04-17T00:34:16.241Z,95761.03
2023-04-17T00:36:47.698Z,95763.44
2023-04-17T00:39:19.241Z,95753.75
2023-04-17T00:41:51.035Z,95754.00
2023-04-17T00:44:22.563Z,95758.09
2023-04-17T00:46:54.110Z,95761.50
2023-04-17T00:49:27.484Z,95765.19
2023-04-17T00:51:59.052Z,95759.84
2023-04-17T00:54:31.738Z,95754.47
2023-04-17T00:57:03.478Z,95760.34
2023-04-17T00:59:37.773Z,95759.75
2023-04-17T01:02:09.448Z,95749.28
2023-04-17T01:04:41.017Z,95760.00
2023-04-17T01:07:12.788Z,95759.03
2023-04-17T01:09:44.649Z,95758.16
2023-04-17T01:12:20.743Z,95755.81
2023-04-17T01:14:56.422Z,95754.97
2023-04-17T01:17:28.227Z,95748.81
2023-04-17T01:19:59.871Z,95750.47
2023-04-17T01:22:31.336Z,95745.94
2023-04-17T01:25:03.237Z,95746.72
2023-04-17T01:27:35.688Z,95748.47
2023-04-17T01:30:07.346Z,95748.34
2023-04-17T01:32:38.922Z,95749.06
2023-04-17T01:35:10.718Z,95749.88
2023-04-17T01:37:42.251Z,95746.75
2023-04-17T01:40:13.872Z,95743.66
2023-04-17T01:42:45.614Z,95750.16
2023-04-17T01:45:17.127Z,95745.38
2023-04-17T01:47:48.773Z,95746.81
2023-04-17T01:50:20.287Z,95758.09
2023-04-17T01:52:51.791Z,95753.25
2023-04-17T01:55:23.255Z,95753.06
2023-04-17T01:57:54.761Z,95755.25
2023-04-17T02:00:26.265Z,95756.75
2023-04-17T02:02:57.952Z,95751.44
2023-04-17T02:05:29.637Z,95758.06
2023-04-17T02:08:01.191Z,95752.66
2023-04-17T02:10:33.121Z,95751.13
2023-04-17T02:13:04.699Z,95745.06
2023-04-17T02:15:39.376Z,95736.44
2023-04-17T02:18:11.191Z,95745.06
2023-04-17T02:20:42.954Z,95752.41
2023-04-17T02:23:14.565Z,95748.81
2023-04-17T02:25:46.133Z,95747.50
2023-04-17T02:28:17.700Z,95748.25
2023-04-17T02:30:49.206Z,95746.34
2023-04-17T02:33:21.431Z,95746.56
2023-04-17T02:35:52.948Z,95747.59
2023-04-17T02:38:24.455Z,95747.75
2023-04-17T02:40:57.338Z,95747.03
2023-04-17T02:43:28.863Z,95752.56
2023-04-17T02:46:01.435Z,95747.53
2023-04-17T02:48:32.944Z,95754.53
2023-04-17T02:51:04.590Z,95752.25
2023-04-17T02:53:36.143Z,95758.06
2023-04-17T02:56:07.709Z,95749.16
2023-04-17T02:58:39.725Z,95744.09
2023-04-17T03:01:11.561Z,95748.13
2023-04-17T03:03:45.127Z,95748.56
2023-04-17T03:06:16.883Z,95751.78
2023-04-17T03:08:48.339Z,95749.34
2023-04-17T03:11:19.951Z,95749.78
2023-04-17T03:13:51.510Z,95746.16
2023-04-17T03:16:23.017Z,95740.53
2023-04-17T03:18:54.650Z,95742.22
2023-04-17T03:21:26.671Z,95744.66
2023-04-17T03:23:58.174Z,95743.84
2023-04-17T03:26:29.601Z,95737.22
2023-04-17T03:29:01.133Z,95732.72
2023-04-17T03:31:32.642Z,95741.41
2023-04-17T03:34:04.186Z,95738.56
2023-04-17T03:36:36.278Z,95738.56
2023-04-17T03:39:07.815Z,95737.47
2023-04-17T03:41:39.586Z,95745.63
2023-04-17T03:44:11.201Z,95739.34
2023-04-17T03:46:42.819Z,95750.38
2023-04-17T03:49:14.553Z,95745.97
2023-04-17T03:51:46.174Z,95747.44
2023-04-17T03:54:17.637Z,95744.13
2023-04-17T03:56:49.096Z,95752.50
2023-04-17T03:59:20.650Z,95750.50
2023-04-17T04:01:54.136Z,95751.06
2023-04-17T04:04:26.003Z,95756.69
2023-04-17T04:06:57.999Z,95756.03
2023-04-17T04:09:29.644Z,95756.34
2023-04-17T04:12:01.279Z,95759.22
2023-04-17T04:14:32.855Z,95761.97
2023-04-17T04:17:04.447Z,95765.97
2023-04-17T04:19:36.004Z,95769.47
2023-04-17T04:22:09.172Z,95760.88
2023-04-17T04:24:41.008Z,95777.66
2023-04-17T04:27:13.100Z,95773.59
2023-04-17T04:29:45.622Z,95776.66
2023-04-17T04:32:17.200Z,95776.34
2023-04-17T04:34:48.815Z,95781.78
2023-04-17T04:37:21.849Z,95776.91
2023-04-17T04:39:54.108Z,95771.75
2023-04-17T04:42:25.555Z,95774.06
2023-04-17T04:44:57.162Z,95768.88
2023-04-17T04:47:28.726Z,95775.72
2023-04-17T04:50:00.330Z,95770.84
2023-04-17T04:52:31.885Z,95765.78
2023-04-17T04:55:03.603Z,95774.84
2023-04-17T04:57:35.065Z,95770.63
2023-04-17T05:00:08.703Z,95773.50
2023-04-17T05:02:40.398Z,95777.03
2023-04-17T05:05:12.445Z,95789.63
2023-04-17T05:07:43.910Z,95785.19
2023-04-17T05:10:15.676Z,95778.00
2023-04-17T05:12:47.176Z,95775.13
2023-04-17T05:15:18.770Z,95768.59
2023-04-17T05:17:50.686Z,95761.06
2023-04-17T05:20:22.266Z,95759.19
2023-04-17T05:22:53.919Z,95767.34
2023-04-17T05:25:25.481Z,95773.75
2023-04-17T05:27:56.976Z,95779.06
2023-04-17T05:30:28.430Z,95788.78
2023-04-17T05:33:00.926Z,95789.59
2023-04-17T05:35:32.494Z,95796.78
2023-04-17T05:38:04.756Z,95793.38
2023-04-17T05:40:36.313Z,95798.25
2023-04-17T05:43:09.598Z,95798.56
2023-04-17T05:45:43.867Z,95803.34
2023-04-17T05:48:15.496Z,95802.91
2023-04-17T05:50:47.352Z,95810.63
2023-04-17T05:53:18.950Z,95807.88
2023-04-17T05:55:50.543Z,95801.56
2023-04-17T05:58:24.062Z,95806.66
2023-04-17T06:00:56.881Z,95804.66
2023-04-17T06:03:28.638Z,95803.09
2023-04-17T06:06:00.314Z,95809.06
2023-04-17T06:08:31.829Z,95812.19
2023-04-17T06:11:03.346Z,95806.97
2023-04-17T06:13:34.821Z,95806.75
2023-04-17T06:16:06.578Z,95808.63
2023-04-17T06:18:38.663Z,95812.16
2023-04-17T06:21:10.336Z,95807.41
2023-04-17T06:23:42.976Z,95823.13
2023-04-17T06:26:14.527Z,95823.56
2023-04-17T06:28:46.091Z,95825.44
2023-04-17T06:31:17.623Z,95827.13
2023-04-17T06:33:50.812Z,95829.09
2023-04-17T06:36:31.741Z,95836.72
2023-04-17T06:39:03.347Z,95832.06
2023-04-17T06:41:34.886Z,95834.50
2023-04-17T06:44:06.486Z,95835.81
2023-04-17T06:46:38.084Z,95838.56
2023-04-17T06:49:09.772Z,95842.47
2023-04-17T06:51:43.204Z,95843.56
2023-04-17T06:54:14.812Z,95846.22
2023-04-17T06:56:46.352Z,95843.22
2023-04-17T06:59:18.651Z,95846.22
2023-04-17T07:01:50.330Z,95844.78
2023-04-17T07:04:22.137Z,95842.34
2023-04-17T07:06:53.599Z,95839.47
2023-04-17T07:09:27.855Z,95834.94
2023-04-17T07:11:59.728Z,95841.56
2023-04-17T07:14:31.524Z,95848.88
2023-04-17T07:17:04.253Z,95847.19
2023-04-17T07:19:35.983Z,95849.84
2023-04-17T07:22:07.958Z,95852.63
2023-04-17T07:24:39.482Z,95855.81
2023-04-17T07:27:11.056Z,95852.50
2023-04-17T07:29:42.591Z,95849.06
2023-04-17T07:32:14.493Z,95849.06
2023-04-17T07:34:46.099Z,95852.94
2023-04-17T07:37:17.720Z,95847.19
2023-04-17T07:39:50.502Z,95845.53
2023-04-17T07:42:22.024Z,95853.94
2023-04-17T07:44:53.487Z,95853.59
2023-04-17T07:47:24.985Z,95851.84
2023-04-17T07:49:56.572Z,95854.94
2023-04-17T07:52:28.214Z,95859.03
2023-04-17T07:54:59.736Z,95859.69
2023-04-17T07:57:32.858Z,95868.75
2023-04-17T08:00:07.886Z,95868.41
2023-04-17T08:02:39.984Z,95870.50
2023-04-17T08:05:11.724Z,95881.69
2023-04-17T08:07:43.396Z,95876.69
2023-04-17T08:10:14.998Z,95884.31
2023-04-17T08:12:46.511Z,95877.13
2023-04-17T08:15:18.290Z,95883.97
2023-04-17T08:17:49.993Z,95884.53
2023-04-17T08:20:22.000Z,95885.66
2023-04-17T08:22:53.486Z,95891.84
2023-04-17T08:25:25.467Z,95889.75
2023-04-17T08:27:56.985Z,95890.19
2023-04-17T08:30:28.561Z,95880.47
2023-04-17T08:33:00.186Z,95886.44
2023-04-17T08:35:34.791Z,95886.88
2023-04-17T08:38:08.228Z,95888.63
2023-04-17T08:40:42.729Z,95892.41
2023-04-17T08:43:16.210Z,95893.81
2023-04-17T08:45:53.674Z,95892.81
2023-04-17T08:48:25.467Z,95900.69
2023-04-17T08:50:57.033Z,95895.59
2023-04-17T08:53:28.570Z,95897.00
2023-04-17T08:56:06.831Z,95899.06
2023-04-17T08:58:40.072Z,95895.84
2023-04-17T09:01:15.789Z,95895.97
2023-04-17T09:03:49.462Z,95899.59
2023-04-17T09:06:21.434Z,95897.81
2023-04-17T09:09:01.711Z,95893.22
2023-04-17T09:11:33.287Z,95892.03
2023-04-17T09:14:06.233Z,95895.06
2023-04-17T09:16:53.615Z,95892.22
2023-04-17T09:19:25.263Z,95893.84
2023-04-17T09:21:56.893Z,95887.75
2023-04-17T09:24:35.437Z,95894.53
2023-04-17T09:27:20.567Z,95894.34
2023-04-17T09:30:03.886Z,95905.09
2023-04-17T09:32:35.687Z,95901.84
2023-04-17T09:35:07.498Z,95895.16
2023-04-17T09:37:49.632Z,95900.47
2023-04-17T09:40:22.978Z,95900.63
2023-04-17T09:43:04.828Z,95898.16
2023-04-17T09:45:39.746Z,95906.97
2023-04-17T09:48:12.785Z,95903.06
2023-04-17T09:50:44.862Z,95904.00
2023-04-17T09:53:18.886Z,95894.00
2023-04-17T09:55:53.202Z,95891.63
2023-04-17T09:58:25.326Z,95889.69
2023-04-17T10:00:57.381Z,95893.41
2023-04-17T10:03:29.273Z,95887.28
2023-04-17T10:06:01.431Z,95886.50
2023-04-17T10:08:33.582Z,95880.84
2023-04-17T10:11:07.359Z,95882.25
2023-04-17T10:13:42.861Z,95879.47
2023-04-17T10:16:14.563Z,95880.88
2023-04-17T10:18:46.181Z,95879.22
2023-04-17T10:21:24.162Z,95874.63
2023-04-17T10:23:56.160Z,95879.59
2023-04-17T10:26:30.408Z,95869.88
2023-04-17T10:29:02.045Z,95869.22
2023-04-17T10:32:09.070Z,95867.53
2023-04-17T10:34:43.240Z,95869.09
2023-04-17T10:37:16.042Z,95858.03
2023-04-17T10:39:59.726Z,95859.84
2023-04-17T10:42:32.821Z,95858.50
2023-04-17T10:45:18.789Z,95855.78
2023-04-17T10:47:58.631Z,95861.34
2023-04-17T10:50:30.292Z,95860.44
2023-04-17T10:53:01.816Z,95859.00
2023-04-17T10:55:33.531Z,95863.00
2023-04-17T10:58:14.158Z,95857.34
2023-04-17T11:00:52.559Z,95861.88
2023-04-17T11:03:24.340Z,95862.13
2023-04-17T11:05:56.148Z,95867.56
2023-04-17T11:08:27.737Z,95857.00
2023-04-17T11:10:59.377Z,95856.16
2023-04-17T11:13:34.764Z,95857.88
2023-04-17T11:16:07.543Z,95849.88
2023-04-17T11:18:39.082Z,95839.59
2023-04-17T11:21:14.264Z,95843.00
2023-04-17T11:23:54.740Z,95844.38
2023-04-17T11:26:26.622Z,95839.63
2023-04-17T11:28:59.633Z,95835.81
2023-04-17T11:31:31.585Z,95846.47
2023-04-17T11:34:08.058Z,95832.34
2023-04-17T11:36:39.705Z,95832.03
2023-04-17T11:39:14.947Z,95827.66
2023-04-17T11:41:47.044Z,95830.22
2023-04-17T11:44:22.417Z,95823.81
2023-04-17T11:46:55.604Z,95826.47
2023-04-17T11:49:38.401Z,95826.88
2023-04-17T11:52:13.589Z,95819.66
2023-04-17T11:54:45.951Z,95814.81
2023-04-17T11:57:18.533Z,95819.75
2023-04-17T11:59:50.058Z,95816.47
2023-04-17T12:02:33.466Z,95818.03
2023-04-17T12:05:18.492Z,95818.44
2023-04-17T12:08:19.420Z,95814.69
2023-04-17T12:10:51.321Z,95816.28
2023-04-17T12:13:23.103Z,95811.38
2023-04-17T12:15:54.749Z,95818.34
2023-04-17T12:18:26.723Z,95813.03
2023-04-17T12:20:58.215Z,95811.13
2023-04-17T12:23:30.137Z,95818.41
2023-04-17T12:26:01.692Z,95807.72
2023-04-17T12:28:33.460Z,95810.00
2023-04-17T12:31:05.656Z,95802.31
2023-04-17T12:33:37.136Z,95812.28
2023-04-17T12:36:09.293Z,95807.31
2023-04-17T12:38:43.110Z,95808.44
2023-04-17T12:41:14.619Z,95802.31
2023-04-17T12:43:46.190Z,95791.59
2023-04-17T12:46:17.824Z,95790.00
2023-04-17T12:48:50.372Z,95785.03
2023-04-17T12:51:23.139Z,95791.94
2023-04-17T12:53:58.118Z,95785.84
2023-04-17T12:56:29.982Z,95787.34
2023-04-17T12:59:03.052Z,95783.09
2023-04-17T13:01:35.157Z,95781.94
2023-04-17T13:04:07.344Z,95780.81
2023-04-17T13:06:39.164Z,95786.97
2023-04-17T13:09:10.922Z,95780.06
2023-04-17T13:11:42.836Z,95780.72
2023-04-17T13:14:15.339Z,95781.06
2023-04-17T13:16:48.676Z,95780.00
2023-04-17T13:19:20.313Z,95779.31
2023-04-17T13:21:51.937Z,95773.91
2023-04-17T13:24:23.502Z,95775.81
2023-04-17T13:26:58.140Z,95774.25
2023-04-17T13:29:30.186Z,95767.59
2023-04-17T13:32:02.005Z,95759.56
2023-04-17T13:34:33.593Z,95767.88
2023-04-17T13:37:05.194Z,95760.72
2023-04-17T13:39:36.898Z,95767.34
2023-04-17T13:42:08.696Z,95760.09
2023-04-17T13:44:40.311Z,95765.88
2023-04-17T13:47:13.391Z,95761.78
2023-04-17T13:49:44.976Z,95763.94
2023-04-17T13:52:16.544Z,95769.19
2023-04-17T13:54:48.693Z,95767.38
2023-04-17T13:57:20.651Z,95765.03
2023-04-17T13:59:52.512Z,95765.63
2023-04-17T14:02:24.722Z,95759.19
2023-04-17T14:04:56.801Z,95746.56
2023-04-17T14:07:30.065Z,95750.28
2023-04-17T14:10:01.850Z,95748.59
2023-04-17T14:12:33.453Z,95742.09
2023-04-17T14:15:07.440Z,95746.22
2023-04-17T14:17:42.890Z,95746.88
2023-04-17T14:20:16.704Z,95748.66
2023-04-17T14:22:48.316Z,95746.31
2023-04-17T14:25:20.149Z,95738.38
2023-04-17T14:27:52.487Z,95739.63
2023-04-17T14:30:24.042Z,95731.47
2023-04-17T14:32:55.565Z,95741.78
2023-04-17T14:35:27.460Z,95728.56
2023-04-17T14:37:59.037Z,95727.31
2023-04-17T14:40:31.213Z,95725.72
2023-04-17T14:43:02.766Z,95724.00
2023-04-17T14:45:36.739Z,95735.03
2023-04-17T14:48:08.295Z,95735.78
2023-04-17T14:50:39.926Z,95726.47
2023-04-17T14:53:11.425Z,95725.72
2023-04-17T14:55:42.981Z,95731.41
2023-04-17T14:58:14.471Z,95733.31
2023-04-17T15:00:46.009Z,95726.88
2023-04-17T15:03:17.622Z,95728.13
2023-04-17T15:05:49.603Z,95724.69
2023-04-17T15:08:21.069Z,95722.16
2023-04-17T15:10:52.631Z,95710.25
2023-04-17T15:13:24.181Z,95708.16
2023-04-17T15:15:55.861Z,95715.31
2023-04-17T15:18:27.359Z,95711.25
2023-04-17T15:20:58.977Z,95718.53
2023-04-17T15:23:30.632Z,95718.56
2023-04-17T15:26:02.338Z,95725.63
2023-04-17T15:28:35.009Z,95741.19
2023-04-17T15:31:07.018Z,95740.03
2023-04-17T15:33:39.015Z,95740.44
2023-04-17T15:36:11.258Z,95741.69
2023-04-17T15:38:43.968Z,95745.91
2023-04-17T15:41:15.515Z,95743.53
2023-04-17T15:43:47.034Z,95749.97
2023-04-17T15:46:18.657Z,95759.44
2023-04-17T15:49:06.825Z,95753.50
2023-04-17T15:51:41.508Z,95744.88
2023-04-17T15:54:13.282Z,95756.81
2023-04-17T15:56:44.863Z,95747.28
2023-04-17T15:59:16.406Z,95755.50
2023-04-17T16:01:48.378Z,95755.00
2023-04-17T16:04:20.299Z,95755.75
2023-04-17T16:06:51.962Z,95758.31
2023-04-17T16:09:24.492Z,95760.16
2023-04-17T16:11:57.085Z,95758.47
2023-04-17T16:14:28.614Z,95750.63
2023-04-17T16:17:01.143Z,95757.75
2023-04-17T16:19:32.798Z,95755.50
2023-04-17T16:22:04.353Z,95750.00
2023-04-17T16:24:35.910Z,95754.88
2023-04-17T16:27:07.585Z,95753.47
2023-04-17T16:29:39.104Z,95758.59
2023-04-17T16:32:12.072Z,95756.13
2023-04-17T16:34:43.697Z,95751.75
2023-04-17T16:37:15.393Z,95749.56
2023-04-17T16:39:47.191Z,95751.88
2023-04-17T16:42:18.738Z,95749.66
2023-04-17T16:44:50.300Z,95750.44
2023-04-17T16:47:21.928Z,95754.34
2023-04-17T16:49:53.505Z,95752.13
2023-04-17T16:52:25.108Z,95760.06
2023-04-17T16:54:56.575Z,95754.13
2023-04-17T16:57:28.135Z,95756.53
2023-04-17T16:59:59.631Z,95764.84
2023-04-17T17:02:31.220Z,95766.03
2023-04-17T17:05:03.884Z,95762.53
2023-04-17T17:07:35.427Z,95766.34
2023-04-17T17:10:07.688Z,95771.97
2023-04-17T17:12:39.094Z,95776.81
2023-04-17T17:15:11.029Z,95782.41
2023-04-17T17:17:43.124Z,95777.31
2023-04-17T17:20:14.754Z,95777.63
2023-04-17T17:22:46.289Z,95776.72
2023-04-17T17:25:17.858Z,95778.88
2023-04-17T17:27:49.448Z,95773.88
2023-04-17T17:30:21.041Z,95784.84
2023-04-17T17:32:52.759Z,95774.75
2023-04-17T17:35:24.307Z,95780.53
2023-04-17T17:37:55.844Z,95777.25
2023-04-17T17:40:27.702Z,95783.44
2023-04-17T17:42:59.216Z,95789.47
2023-04-17T17:45:30.764Z,95786.03
2023-04-17T17:48:02.279Z,95784.78
2023-04-17T17:50:33.946Z,95782.81
2023-04-17T17:53:05.451Z,95797.13
2023-04-17T17:55:38.012Z,95788.47
2023-04-17T17:58:09.641Z,95794.13
2023-04-17T18:00:41.106Z,95796.44
2023-04-17T18:03:15.595Z,95796.09
2023-04-17T18:05:47.526Z,95798.34
2023-04-17T18:08:18.988Z,95797.53
2023-04-17T18:10:50.907Z,95798.25
2023-04-17T18:13:22.397Z,95801.28
2023-04-17T18:15:53.880Z,95797.84
2023-04-17T18:18:25.445Z,95804.31
2023-04-17T18:20:56.929Z,95808.50
2023-04-17T18:23:28.463Z,95805.00
2023-04-17T18:26:02.054Z,95806.22
2023-04-17T18:28:33.563Z,95811.91
2023-04-17T18:31:05.073Z,95800.78
2023-04-17T18:33:39.829Z,95810.25
2023-04-17T18:36:11.594Z,95809.13
2023-04-17T18:38:43.079Z,95817.47
2023-04-17T18:41:14.564Z,95820.84
2023-04-17T18:43:46.045Z,95817.41
2023-04-17T18:46:18.122Z,95823.84
2023-04-17T18:48:49.710Z,95827.22
2023-04-17T18:51:21.341Z,95829.13
2023-04-17T18:53:52.888Z,95832.13
2023-04-17T18:56:24.395Z,95827.16
2023-04-17T18:58:55.851Z,95835.84
2023-04-17T19:01:27.286Z,95831.63
2023-04-17T19:03:59.033Z,95829.69
2023-04-17T19:06:31.315Z,95834.91
2023-04-17T19:09:02.650Z,95829.53
2023-04-17T19:11:34.220Z,95837.53
2023-04-17T19:14:05.802Z,95835.56
2023-04-17T19:16:39.748Z,95837.47
2023-04-17T19:19:13.584Z,95840.03
2023-04-17T19:21:45.400Z,95839.25
2023-04-17T19:24:17.048Z,95838.28
2023-04-17T19:26:48.542Z,95836.75
2023-04-17T19:29:20.165Z,95841.91
2023-04-17T19:31:51.901Z,95842.16
2023-04-17T19:34:23.488Z,95845.63
2023-04-17T19:36:55.246Z,95837.53
2023-04-17T19:39:27.699Z,95834.44
2023-04-17T19:42:00.885Z,95831.94
2023-04-17T19:44:32.938Z,95834.34
2023-04-17T19:47:04.573Z,95831.69
2023-04-17T19:49:36.121Z,95825.69
2023-04-17T19:52:07.644Z,95832.31
2023-04-17T19:54:39.363Z,95834.69
2023-04-17T19:57:11.283Z,95830.47
2023-04-17T19:59:43.093Z,95819.84
2023-04-17T20:02:15.840Z,95822.75
2023-04-17T20:04:47.812Z,95825.50
2023-04-17T20:07:19.314Z,95826.63
2023-04-17T20:09:50.845Z,95826.03
2023-04-17T20:12:22.398Z,95817.59
2023-04-17T20:14:53.935Z,95813.53
2023-04-17T20:17:25.552Z,95815.84
2023-04-17T20:19:57.124Z,95820.72
2023-04-17T20:22:28.653Z,95814.47
2023-04-17T20:25:00.144Z,95819.59
2023-04-17T20:27:31.680Z,95817.47
2023-04-17T20:30:03.506Z,95812.56
2023-04-17T20:32:35.127Z,95820.72
2023-04-17T20:35:06.949Z,95819.59
2023-04-17T20:37:40.820Z,95818.00
2023-04-17T20:40:14.004Z,95814.88
2023-04-17T20:42:46.306Z,95823.81
2023-04-17T20:45:17.838Z,95812.75
2023-04-17T20:50:24.725Z,95815.31
2023-04-17T20:52:56.468Z,95814.22
2023-04-17T20:55:28.183Z,95811.97
2023-04-17T20:57:59.675Z,95810.44
2023-04-17T21:00:31.183Z,95811.97
2023-04-17T21:03:02.803Z,95812.94
2023-04-17T21:05:34.453Z,95816.94
2023-04-17T21:08:06.495Z,95817.06
2023-04-17T21:10:37.963Z,95814.41
2023-04-17T21:13:09.451Z,95812.22
2023-04-17T21:15:42.207Z,95808.91
2023-04-17T21:18:13.712Z,95808.13
2023-04-17T21:20:45.849Z,95810.69
2023-04-17T21:23:17.340Z,95806.06
2023-04-17T21:25:52.023Z,95809.84
2023-04-17T21:28:23.590Z,95803.47
2023-04-17T21:30:55.070Z,95809.22
2023-04-17T21:33:27.534Z,95797.03
2023-04-17T21:35:59.040Z,95811.47
2023-04-17T21:38:30.608Z,95807.59
2023-04-17T21:41:02.182Z,95808.13
2023-04-17T21:43:33.676Z,95806.66
2023-04-17T21:46:09.656Z,95804.78
2023-04-17T21:48:41.289Z,95805.13
2023-04-17T21:51:12.838Z,95806.06
2023-04-17T21:53:44.336Z,95799.72
2023-04-17T21:56:15.913Z,95805.13
2023-04-17T21:58:47.384Z,95796.44
2023-04-17T22:01:19.020Z,95804.44
2023-04-17T22:03:50.641Z,95795.78
2023-04-17T22:06:22.284Z,95802.97
2023-04-17T22:08:53.752Z,95801.53
2023-04-17T22:11:25.325Z,95803.06
2023-04-17T22:13:56.818Z,95796.19
2023-04-17T22:16:28.363Z,95803.81
2023-04-17T22:18:59.895Z,95803.81
2023-04-17T22:21:31.437Z,95799.56
2023-04-17T22:24:02.909Z,95799.56
2023-04-17T22:26:34.496Z,95799.09
2023-04-17T22:29:06.477Z,95803.59
2023-04-17T22:31:38.077Z,95797.50
2023-04-17T22:34:09.605Z,95795.44
2023-04-17T22:36:41.220Z,95795.94
2023-04-17T22:39:12.758Z,95799.19
2023-04-17T22:41:44.325Z,95803.22
2023-04-17T22:44:15.833Z,95807.19
2023-04-17T22:46:47.413Z,95799.97
2023-04-17T22:49:19.661Z,95798.16
2023-04-17T22:51:51.703Z,95796.53
2023-04-17T22:54:23.501Z,95795.84
2023-04-17T22:56:55.055Z,95802.63
2023-04-17T22:59:26.601Z,95794.41
2023-04-17T23:01:58.270Z,95794.72
2023-04-17T23:04:29.904Z,95794.84
2023-04-17T23:07:01.473Z,95791.66
2023-04-17T23:09:32.991Z,95799.38
2023-04-17T23:12:06.228Z,95792.94
2023-04-17T23:14:37.725Z,95792.94
2023-04-17T23:17:12.288Z,95786.09
2023-04-17T23:19:43.887Z,95794.47
2023-04-17T23:22:15.552Z,95790.81
2023-04-17T23:24:47.117Z,95793.63
2023-04-17T23:27:18.684Z,95786.75
2023-04-17T23:29:50.522Z,95780.31
2023-04-17T23:32:22.156Z,95783.69
2023-04-17T23:34:53.755Z,95772.63
2023-04-17T23:37:25.668Z,95779.81
2023-04-17T23:39:57.304Z,95777.50
2023-04-17T23:42:28.947Z,95784.38
2023-04-17T23:45:00.459Z,95785.50
2023-04-17T23:47:32.031Z,95787.38
2023-04-17T23:50:05.447Z,95784.28
2023-04-17T23:52:37.007Z,95775.44
2023-04-17T23:55:08.855Z,95776.91
2023-04-17T23:57:40.531Z,95774.69
